sensor_id;sensor_type;location;lat;lon;timestamp;P1;durP1;ratioP1;P2;durP2;ratioP2
22715;SDS011;11525;51.152;4.456;2023-08-06T00:00:25;7.13;;;3.75;;
22715;SDS011;11525;51.152;4.456;2023-08-06T00:02:51;6.55;;;4.38;;
22715;SDS011;11525;51.152;4.456;2023-08-06T00:05:16;5.43;;;4.28;;
22715;SDS011;11525;51.152;4.456;2023-08-06T00:07:48;11.55;;;5.15;;
22715;SDS011;11525;51.152;4.456;2023-08-06T00:10:14;6.57;;;4.78;;
22715;SDS011;11525;51.152;4.456;2023-08-06T00:12:40;9.57;;;4.68;;
22715;SDS011;11525;51.152;4.456;2023-08-06T00:15:06;10.02;;;4.82;;
22715;SDS011;11525;51.152;4.456;2023-08-06T00:17:33;7.47;;;4.68;;
22715;SDS011;11525;51.152;4.456;2023-08-06T00:19:59;7.95;;;4.95;;
22715;SDS011;11525;51.152;4.456;2023-08-06T00:22:29;6.22;;;4.60;;
22715;SDS011;11525;51.152;4.456;2023-08-06T00:24:56;5.15;;;4.63;;
22715;SDS011;11525;51.152;4.456;2023-08-06T00:27:22;8.82;;;5.25;;
22715;SDS011;11525;51.152;4.456;2023-08-06T00:29:48;8.30;;;5.40;;
22715;SDS011;11525;51.152;4.456;2023-08-06T00:32:14;5.80;;;4.75;;
22715;SDS011;11525;51.152;4.456;2023-08-06T00:34:40;8.02;;;4.85;;
22715;SDS011;11525;51.152;4.456;2023-08-06T00:37:05;8.75;;;5.13;;
22715;SDS011;11525;51.152;4.456;2023-08-06T00:39:31;8.30;;;5.95;;
22715;SDS011;11525;51.152;4.456;2023-08-06T00:41:57;7.32;;;4.47;;
22715;SDS011;11525;51.152;4.456;2023-08-06T00:44:23;8.85;;;4.53;;
22715;SDS011;11525;51.152;4.456;2023-08-06T00:46:49;6.72;;;4.32;;
22715;SDS011;11525;51.152;4.456;2023-08-06T00:49:15;8.63;;;4.43;;
22715;SDS011;11525;51.152;4.456;2023-08-06T00:51:41;7.43;;;4.55;;
22715;SDS011;11525;51.152;4.456;2023-08-06T00:54:08;5.68;;;4.45;;
22715;SDS011;11525;51.152;4.456;2023-08-06T00:56:34;4.90;;;4.30;;
22715;SDS011;11525;51.152;4.456;2023-08-06T00:59:01;8.32;;;4.53;;
22715;SDS011;11525;51.152;4.456;2023-08-06T01:01:27;5.53;;;4.85;;
22715;SDS011;11525;51.152;4.456;2023-08-06T01:03:53;7.95;;;4.85;;
22715;SDS011;11525;51.152;4.456;2023-08-06T01:06:19;7.75;;;4.30;;
22715;SDS011;11525;51.152;4.456;2023-08-06T01:09:01;9.70;;;4.80;;
22715;SDS011;11525;51.152;4.456;2023-08-06T01:14:36;8.20;;;4.43;;
22715;SDS011;11525;51.152;4.456;2023-08-06T01:17:11;5.95;;;4.15;;
22715;SDS011;11525;51.152;4.456;2023-08-06T01:19:39;8.75;;;4.95;;
22715;SDS011;11525;51.152;4.456;2023-08-06T01:22:04;9.48;;;5.18;;
22715;SDS011;11525;51.152;4.456;2023-08-06T01:24:30;8.18;;;5.22;;
22715;SDS011;11525;51.152;4.456;2023-08-06T01:29:29;6.63;;;4.93;;
22715;SDS011;11525;51.152;4.456;2023-08-06T01:32:02;8.48;;;4.90;;
22715;SDS011;11525;51.152;4.456;2023-08-06T01:34:31;8.25;;;5.07;;
22715;SDS011;11525;51.152;4.456;2023-08-06T01:36:59;6.88;;;4.75;;
22715;SDS011;11525;51.152;4.456;2023-08-06T01:39:26;5.53;;;4.47;;
22715;SDS011;11525;51.152;4.456;2023-08-06T01:41:51;9.30;;;5.03;;
22715;SDS011;11525;51.152;4.456;2023-08-06T01:44:17;7.25;;;5.25;;
22715;SDS011;11525;51.152;4.456;2023-08-06T01:46:43;8.77;;;6.07;;
22715;SDS011;11525;51.152;4.456;2023-08-06T01:49:08;9.93;;;5.30;;
22715;SDS011;11525;51.152;4.456;2023-08-06T01:51:34;6.28;;;5.10;;
22715;SDS011;11525;51.152;4.456;2023-08-06T01:54:00;10.32;;;6.50;;
22715;SDS011;11525;51.152;4.456;2023-08-06T01:56:25;10.38;;;5.95;;
22715;SDS011;11525;51.152;4.456;2023-08-06T01:58:51;7.15;;;5.53;;
22715;SDS011;11525;51.152;4.456;2023-08-06T02:01:17;6.55;;;5.40;;
22715;SDS011;11525;51.152;4.456;2023-08-06T02:03:42;12.05;;;5.70;;
22715;SDS011;11525;51.152;4.456;2023-08-06T02:06:08;10.65;;;5.05;;
22715;SDS011;11525;51.152;4.456;2023-08-06T02:08:34;8.40;;;5.32;;
22715;SDS011;11525;51.152;4.456;2023-08-06T02:10:59;9.95;;;5.45;;
22715;SDS011;11525;51.152;4.456;2023-08-06T02:13:25;8.95;;;5.30;;
22715;SDS011;11525;51.152;4.456;2023-08-06T02:15:51;8.70;;;5.78;;
22715;SDS011;11525;51.152;4.456;2023-08-06T02:18:17;6.65;;;4.20;;
22715;SDS011;11525;51.152;4.456;2023-08-06T02:20:42;11.93;;;5.70;;
22715;SDS011;11525;51.152;4.456;2023-08-06T02:23:08;10.63;;;6.43;;
22715;SDS011;11525;51.152;4.456;2023-08-06T02:25:34;13.18;;;6.47;;
22715;SDS011;11525;51.152;4.456;2023-08-06T02:28:00;14.20;;;5.63;;
22715;SDS011;11525;51.152;4.456;2023-08-06T02:30:26;12.13;;;5.68;;
22715;SDS011;11525;51.152;4.456;2023-08-06T02:32:52;9.40;;;6.05;;
22715;SDS011;11525;51.152;4.456;2023-08-06T02:35:17;13.48;;;6.15;;
22715;SDS011;11525;51.152;4.456;2023-08-06T02:37:43;13.40;;;6.68;;
22715;SDS011;11525;51.152;4.456;2023-08-06T02:40:09;7.72;;;5.82;;
22715;SDS011;11525;51.152;4.456;2023-08-06T02:42:34;13.50;;;6.57;;
22715;SDS011;11525;51.152;4.456;2023-08-06T02:45:00;11.40;;;6.45;;
22715;SDS011;11525;51.152;4.456;2023-08-06T02:47:26;11.80;;;7.03;;
22715;SDS011;11525;51.152;4.456;2023-08-06T02:49:51;13.02;;;6.78;;
22715;SDS011;11525;51.152;4.456;2023-08-06T02:52:17;10.80;;;6.72;;
22715;SDS011;11525;51.152;4.456;2023-08-06T02:54:43;10.13;;;6.65;;
22715;SDS011;11525;51.152;4.456;2023-08-06T02:57:09;14.52;;;8.15;;
22715;SDS011;11525;51.152;4.456;2023-08-06T02:59:34;14.88;;;8.25;;
22715;SDS011;11525;51.152;4.456;2023-08-06T03:02:00;13.60;;;7.38;;
22715;SDS011;11525;51.152;4.456;2023-08-06T03:04:26;15.80;;;9.18;;
22715;SDS011;11525;51.152;4.456;2023-08-06T03:06:52;18.67;;;9.38;;
22715;SDS011;11525;51.152;4.456;2023-08-06T03:09:17;12.98;;;8.40;;
22715;SDS011;11525;51.152;4.456;2023-08-06T03:11:43;13.75;;;8.40;;
22715;SDS011;11525;51.152;4.456;2023-08-06T03:14:09;17.10;;;10.45;;
22715;SDS011;11525;51.152;4.456;2023-08-06T03:16:35;17.35;;;10.85;;
22715;SDS011;11525;51.152;4.456;2023-08-06T03:19:00;15.52;;;9.30;;
22715;SDS011;11525;51.152;4.456;2023-08-06T03:21:26;28.60;;;10.88;;
22715;SDS011;11525;51.152;4.456;2023-08-06T03:23:52;14.25;;;10.13;;
22715;SDS011;11525;51.152;4.456;2023-08-06T03:26:17;20.65;;;11.90;;
22715;SDS011;11525;51.152;4.456;2023-08-06T03:28:43;19.60;;;11.18;;
22715;SDS011;11525;51.152;4.456;2023-08-06T03:31:09;21.02;;;12.05;;
22715;SDS011;11525;51.152;4.456;2023-08-06T03:33:34;16.23;;;10.95;;
22715;SDS011;11525;51.152;4.456;2023-08-06T03:36:00;19.45;;;11.93;;
22715;SDS011;11525;51.152;4.456;2023-08-06T03:38:26;18.23;;;10.80;;
22715;SDS011;11525;51.152;4.456;2023-08-06T03:40:52;17.45;;;9.93;;
22715;SDS011;11525;51.152;4.456;2023-08-06T03:43:18;19.42;;;10.93;;
22715;SDS011;11525;51.152;4.456;2023-08-06T03:45:44;16.75;;;9.93;;
22715;SDS011;11525;51.152;4.456;2023-08-06T03:48:10;13.75;;;9.57;;
22715;SDS011;11525;51.152;4.456;2023-08-06T03:50:35;6.43;;;5.10;;
22715;SDS011;11525;51.152;4.456;2023-08-06T03:53:01;4.50;;;2.90;;
22715;SDS011;11525;51.152;4.456;2023-08-06T03:55:27;3.65;;;2.42;;
22715;SDS011;11525;51.152;4.456;2023-08-06T03:57:53;2.03;;;1.83;;
22715;SDS011;11525;51.152;4.456;2023-08-06T04:00:18;1.48;;;1.30;;
22715;SDS011;11525;51.152;4.456;2023-08-06T04:02:44;1.23;;;1.00;;
22715;SDS011;11525;51.152;4.456;2023-08-06T04:05:10;1.20;;;1.10;;
22715;SDS011;11525;51.152;4.456;2023-08-06T04:07:36;2.13;;;1.30;;
22715;SDS011;11525;51.152;4.456;2023-08-06T04:10:02;2.03;;;0.98;;
22715;SDS011;11525;51.152;4.456;2023-08-06T04:12:29;1.20;;;1.08;;
22715;SDS011;11525;51.152;4.456;2023-08-06T04:14:56;3.30;;;1.40;;
22715;SDS011;11525;51.152;4.456;2023-08-06T04:17:23;1.60;;;1.30;;
22715;SDS011;11525;51.152;4.456;2023-08-06T04:19:50;2.67;;;1.50;;
22715;SDS011;11525;51.152;4.456;2023-08-06T04:22:16;5.63;;;1.88;;
22715;SDS011;11525;51.152;4.456;2023-08-06T04:24:42;3.70;;;2.40;;
22715;SDS011;11525;51.152;4.456;2023-08-06T04:27:09;3.22;;;2.40;;
22715;SDS011;11525;51.152;4.456;2023-08-06T04:29:35;4.45;;;3.22;;
22715;SDS011;11525;51.152;4.456;2023-08-06T04:32:01;4.40;;;4.00;;
22715;SDS011;11525;51.152;4.456;2023-08-06T04:34:26;8.80;;;5.40;;
22715;SDS011;11525;51.152;4.456;2023-08-06T04:36:52;12.07;;;7.05;;
22715;SDS011;11525;51.152;4.456;2023-08-06T04:39:18;16.83;;;9.48;;
22715;SDS011;11525;51.152;4.456;2023-08-06T04:41:43;16.15;;;9.85;;
22715;SDS011;11525;51.152;4.456;2023-08-06T04:44:09;19.08;;;10.65;;
22715;SDS011;11525;51.152;4.456;2023-08-06T04:46:35;18.02;;;10.88;;
22715;SDS011;11525;51.152;4.456;2023-08-06T04:49:01;18.35;;;9.65;;
22715;SDS011;11525;51.152;4.456;2023-08-06T04:51:26;14.40;;;9.30;;
22715;SDS011;11525;51.152;4.456;2023-08-06T04:53:52;13.20;;;8.93;;
22715;SDS011;11525;51.152;4.456;2023-08-06T04:56:17;13.85;;;8.90;;
22715;SDS011;11525;51.152;4.456;2023-08-06T04:58:43;19.77;;;10.10;;
22715;SDS011;11525;51.152;4.456;2023-08-06T05:01:09;19.73;;;8.93;;
22715;SDS011;11525;51.152;4.456;2023-08-06T05:03:34;11.00;;;6.72;;
22715;SDS011;11525;51.152;4.456;2023-08-06T05:06:00;16.60;;;7.03;;
22715;SDS011;11525;51.152;4.456;2023-08-06T05:08:26;13.90;;;6.35;;
22715;SDS011;11525;51.152;4.456;2023-08-06T05:10:51;21.20;;;6.68;;
22715;SDS011;11525;51.152;4.456;2023-08-06T05:13:17;12.02;;;5.47;;
22715;SDS011;11525;51.152;4.456;2023-08-06T05:15:43;10.88;;;5.80;;
22715;SDS011;11525;51.152;4.456;2023-08-06T05:18:10;14.50;;;6.32;;
22715;SDS011;11525;51.152;4.456;2023-08-06T05:20:37;17.95;;;5.57;;
22715;SDS011;11525;51.152;4.456;2023-08-06T05:23:03;17.63;;;6.47;;
22715;SDS011;11525;51.152;4.456;2023-08-06T05:25:29;13.48;;;5.55;;
22715;SDS011;11525;51.152;4.456;2023-08-06T05:27:55;22.10;;;6.03;;
22715;SDS011;11525;51.152;4.456;2023-08-06T05:30:20;15.40;;;5.90;;
22715;SDS011;11525;51.152;4.456;2023-08-06T05:32:46;22.67;;;6.28;;
22715;SDS011;11525;51.152;4.456;2023-08-06T05:35:12;15.40;;;5.78;;
22715;SDS011;11525;51.152;4.456;2023-08-06T05:37:37;16.42;;;5.22;;
22715;SDS011;11525;51.152;4.456;2023-08-06T05:40:03;17.35;;;5.43;;
22715;SDS011;11525;51.152;4.456;2023-08-06T05:42:29;15.00;;;5.25;;
22715;SDS011;11525;51.152;4.456;2023-08-06T05:44:55;14.75;;;5.47;;
22715;SDS011;11525;51.152;4.456;2023-08-06T05:47:21;18.98;;;5.05;;
22715;SDS011;11525;51.152;4.456;2023-08-06T05:49:46;13.48;;;4.85;;
22715;SDS011;11525;51.152;4.456;2023-08-06T05:52:12;17.80;;;5.32;;
22715;SDS011;11525;51.152;4.456;2023-08-06T05:54:38;13.65;;;5.00;;
22715;SDS011;11525;51.152;4.456;2023-08-06T05:57:05;14.07;;;4.18;;
22715;SDS011;11525;51.152;4.456;2023-08-06T05:59:31;13.40;;;4.82;;
22715;SDS011;11525;51.152;4.456;2023-08-06T06:01:57;18.33;;;5.35;;
22715;SDS011;11525;51.152;4.456;2023-08-06T06:04:23;11.55;;;4.82;;
22715;SDS011;11525;51.152;4.456;2023-08-06T06:06:48;9.88;;;4.60;;
22715;SDS011;11525;51.152;4.456;2023-08-06T06:09:14;14.45;;;4.30;;
22715;SDS011;11525;51.152;4.456;2023-08-06T06:11:39;13.85;;;5.00;;
22715;SDS011;11525;51.152;4.456;2023-08-06T06:14:05;14.60;;;4.55;;
22715;SDS011;11525;51.152;4.456;2023-08-06T06:16:31;11.48;;;4.88;;
22715;SDS011;11525;51.152;4.456;2023-08-06T06:18:56;16.70;;;4.97;;
22715;SDS011;11525;51.152;4.456;2023-08-06T06:21:22;13.45;;;4.72;;
22715;SDS011;11525;51.152;4.456;2023-08-06T06:23:51;12.15;;;4.60;;
22715;SDS011;11525;51.152;4.456;2023-08-06T06:26:17;15.48;;;5.18;;
22715;SDS011;11525;51.152;4.456;2023-08-06T06:28:43;12.60;;;4.88;;
22715;SDS011;11525;51.152;4.456;2023-08-06T06:31:09;13.63;;;5.13;;
22715;SDS011;11525;51.152;4.456;2023-08-06T06:33:35;10.38;;;4.70;;
22715;SDS011;11525;51.152;4.456;2023-08-06T06:36:01;13.98;;;4.72;;
22715;SDS011;11525;51.152;4.456;2023-08-06T06:38:30;13.88;;;5.40;;
22715;SDS011;11525;51.152;4.456;2023-08-06T06:40:56;11.38;;;5.07;;
22715;SDS011;11525;51.152;4.456;2023-08-06T06:43:22;15.60;;;5.78;;
22715;SDS011;11525;51.152;4.456;2023-08-06T06:45:58;13.70;;;5.25;;
22715;SDS011;11525;51.152;4.456;2023-08-06T06:48:28;11.20;;;4.78;;
22715;SDS011;11525;51.152;4.456;2023-08-06T06:50:55;10.05;;;4.63;;
22715;SDS011;11525;51.152;4.456;2023-08-06T06:53:21;10.27;;;4.93;;
22715;SDS011;11525;51.152;4.456;2023-08-06T06:55:55;12.82;;;4.78;;
22715;SDS011;11525;51.152;4.456;2023-08-06T06:58:30;14.45;;;4.72;;
22715;SDS011;11525;51.152;4.456;2023-08-06T07:00:56;9.85;;;5.00;;
22715;SDS011;11525;51.152;4.456;2023-08-06T07:03:22;16.23;;;4.93;;
22715;SDS011;11525;51.152;4.456;2023-08-06T07:05:48;6.95;;;3.83;;
22715;SDS011;11525;51.152;4.456;2023-08-06T07:08:14;15.32;;;4.05;;
22715;SDS011;11525;51.152;4.456;2023-08-06T07:10:40;10.68;;;3.92;;
22715;SDS011;11525;51.152;4.456;2023-08-06T07:13:07;11.23;;;3.38;;
22715;SDS011;11525;51.152;4.456;2023-08-06T07:15:32;12.63;;;3.30;;
22715;SDS011;11525;51.152;4.456;2023-08-06T07:17:58;12.48;;;3.10;;
22715;SDS011;11525;51.152;4.456;2023-08-06T07:20:24;10.13;;;2.97;;
22715;SDS011;11525;51.152;4.456;2023-08-06T07:22:49;12.13;;;2.83;;
22715;SDS011;11525;51.152;4.456;2023-08-06T07:25:16;9.57;;;2.60;;
22715;SDS011;11525;51.152;4.456;2023-08-06T07:27:41;11.95;;;2.67;;
22715;SDS011;11525;51.152;4.456;2023-08-06T07:30:07;13.43;;;2.72;;
22715;SDS011;11525;51.152;4.456;2023-08-06T07:32:33;10.75;;;2.58;;
22715;SDS011;11525;51.152;4.456;2023-08-06T07:34:59;15.45;;;2.72;;
22715;SDS011;11525;51.152;4.456;2023-08-06T07:37:26;12.90;;;3.00;;
22715;SDS011;11525;51.152;4.456;2023-08-06T07:39:55;11.73;;;2.85;;
22715;SDS011;11525;51.152;4.456;2023-08-06T07:42:21;12.60;;;2.60;;
22715;SDS011;11525;51.152;4.456;2023-08-06T07:44:58;14.55;;;2.50;;
22715;SDS011;11525;51.152;4.456;2023-08-06T07:47:24;9.95;;;2.50;;
22715;SDS011;11525;51.152;4.456;2023-08-06T07:49:50;11.10;;;2.40;;
22715;SDS011;11525;51.152;4.456;2023-08-06T07:52:15;20.55;;;3.70;;
22715;SDS011;11525;51.152;4.456;2023-08-06T07:54:41;12.00;;;1.95;;
22715;SDS011;11525;51.152;4.456;2023-08-06T07:57:07;15.43;;;2.70;;
22715;SDS011;11525;51.152;4.456;2023-08-06T07:59:33;14.13;;;2.60;;
22715;SDS011;11525;51.152;4.456;2023-08-06T08:01:58;13.48;;;2.63;;
22715;SDS011;11525;51.152;4.456;2023-08-06T08:04:25;14.60;;;2.45;;
22715;SDS011;11525;51.152;4.456;2023-08-06T08:06:50;9.43;;;2.03;;
22715;SDS011;11525;51.152;4.456;2023-08-06T08:09:16;11.95;;;2.30;;
22715;SDS011;11525;51.152;4.456;2023-08-06T08:11:41;8.75;;;1.92;;
22715;SDS011;11525;51.152;4.456;2023-08-06T08:14:07;10.70;;;2.05;;
22715;SDS011;11525;51.152;4.456;2023-08-06T08:16:33;7.10;;;1.58;;
22715;SDS011;11525;51.152;4.456;2023-08-06T08:18:59;11.02;;;2.70;;
22715;SDS011;11525;51.152;4.456;2023-08-06T08:21:24;6.15;;;1.88;;
22715;SDS011;11525;51.152;4.456;2023-08-06T08:23:50;6.43;;;1.77;;
22715;SDS011;11525;51.152;4.456;2023-08-06T08:26:16;11.48;;;2.53;;
22715;SDS011;11525;51.152;4.456;2023-08-06T08:28:42;11.20;;;2.47;;
22715;SDS011;11525;51.152;4.456;2023-08-06T08:31:08;12.45;;;2.55;;
22715;SDS011;11525;51.152;4.456;2023-08-06T08:33:34;11.73;;;2.45;;
22715;SDS011;11525;51.152;4.456;2023-08-06T08:36:00;14.30;;;3.28;;
22715;SDS011;11525;51.152;4.456;2023-08-06T08:38:26;11.50;;;2.53;;
22715;SDS011;11525;51.152;4.456;2023-08-06T08:40:51;14.68;;;2.58;;
22715;SDS011;11525;51.152;4.456;2023-08-06T08:43:22;12.35;;;2.40;;
22715;SDS011;11525;51.152;4.456;2023-08-06T08:45:52;6.50;;;2.22;;
22715;SDS011;11525;51.152;4.456;2023-08-06T08:48:20;10.55;;;2.67;;
22715;SDS011;11525;51.152;4.456;2023-08-06T08:50:48;11.88;;;3.33;;
22715;SDS011;11525;51.152;4.456;2023-08-06T08:53:15;14.40;;;3.63;;
22715;SDS011;11525;51.152;4.456;2023-08-06T08:55:42;8.40;;;2.63;;
22715;SDS011;11525;51.152;4.456;2023-08-06T08:58:09;13.00;;;2.72;;
22715;SDS011;11525;51.152;4.456;2023-08-06T09:00:35;12.50;;;2.47;;
22715;SDS011;11525;51.152;4.456;2023-08-06T09:03:01;11.32;;;2.60;;
22715;SDS011;11525;51.152;4.456;2023-08-06T09:05:29;12.95;;;2.53;;
22715;SDS011;11525;51.152;4.456;2023-08-06T09:08:04;13.43;;;2.50;;
22715;SDS011;11525;51.152;4.456;2023-08-06T09:10:30;13.15;;;2.70;;
22715;SDS011;11525;51.152;4.456;2023-08-06T09:12:56;13.15;;;2.65;;
22715;SDS011;11525;51.152;4.456;2023-08-06T09:15:26;14.48;;;2.58;;
22715;SDS011;11525;51.152;4.456;2023-08-06T09:17:53;9.27;;;2.00;;
22715;SDS011;11525;51.152;4.456;2023-08-06T09:20:19;11.18;;;2.45;;
22715;SDS011;11525;51.152;4.456;2023-08-06T09:22:45;8.82;;;2.00;;
22715;SDS011;11525;51.152;4.456;2023-08-06T09:25:13;8.90;;;2.22;;
22715;SDS011;11525;51.152;4.456;2023-08-06T09:27:50;6.72;;;1.80;;
22715;SDS011;11525;51.152;4.456;2023-08-06T09:30:29;12.43;;;2.05;;
22715;SDS011;11525;51.152;4.456;2023-08-06T09:32:56;6.88;;;1.38;;
22715;SDS011;11525;51.152;4.456;2023-08-06T09:35:22;8.77;;;2.22;;
22715;SDS011;11525;51.152;4.456;2023-08-06T09:37:48;5.03;;;1.80;;
22715;SDS011;11525;51.152;4.456;2023-08-06T09:42:52;5.88;;;1.65;;
22715;SDS011;11525;51.152;4.456;2023-08-06T09:45:18;8.00;;;2.22;;
22715;SDS011;11525;51.152;4.456;2023-08-06T09:47:44;8.60;;;1.73;;
22715;SDS011;11525;51.152;4.456;2023-08-06T09:50:19;6.13;;;1.60;;
22715;SDS011;11525;51.152;4.456;2023-08-06T09:52:48;6.18;;;1.90;;
22715;SDS011;11525;51.152;4.456;2023-08-06T09:55:16;7.95;;;2.50;;
22715;SDS011;11525;51.152;4.456;2023-08-06T09:57:43;7.10;;;2.03;;
22715;SDS011;11525;51.152;4.456;2023-08-06T10:00:10;7.00;;;2.03;;
22715;SDS011;11525;51.152;4.456;2023-08-06T10:02:37;8.52;;;1.92;;
22715;SDS011;11525;51.152;4.456;2023-08-06T10:05:04;13.38;;;2.50;;
22715;SDS011;11525;51.152;4.456;2023-08-06T10:07:33;8.77;;;2.17;;
22715;SDS011;11525;51.152;4.456;2023-08-06T10:09:59;5.05;;;1.50;;
22715;SDS011;11525;51.152;4.456;2023-08-06T10:12:25;9.25;;;2.20;;
22715;SDS011;11525;51.152;4.456;2023-08-06T10:14:55;14.05;;;2.42;;
22715;SDS011;11525;51.152;4.456;2023-08-06T10:17:23;10.48;;;2.13;;
22715;SDS011;11525;51.152;4.456;2023-08-06T10:19:50;9.18;;;2.60;;
22715;SDS011;11525;51.152;4.456;2023-08-06T10:22:19;11.85;;;2.63;;
22715;SDS011;11525;51.152;4.456;2023-08-06T10:24:46;10.20;;;2.30;;
22715;SDS011;11525;51.152;4.456;2023-08-06T10:27:28;5.65;;;2.40;;
22715;SDS011;11525;51.152;4.456;2023-08-06T10:32:49;8.88;;;2.33;;
22715;SDS011;11525;51.152;4.456;2023-08-06T10:35:32;10.20;;;2.00;;
22715;SDS011;11525;51.152;4.456;2023-08-06T10:38:10;8.00;;;1.88;;
22715;SDS011;11525;51.152;4.456;2023-08-06T10:40:39;5.80;;;1.50;;
22715;SDS011;11525;51.152;4.456;2023-08-06T10:43:06;5.82;;;1.65;;
22715;SDS011;11525;51.152;4.456;2023-08-06T10:45:34;5.95;;;1.50;;
22715;SDS011;11525;51.152;4.456;2023-08-06T10:48:03;8.07;;;1.73;;
22715;SDS011;11525;51.152;4.456;2023-08-06T10:50:29;2.78;;;1.35;;
22715;SDS011;11525;51.152;4.456;2023-08-06T10:52:56;3.15;;;1.40;;
22715;SDS011;11525;51.152;4.456;2023-08-06T10:55:26;7.60;;;1.70;;
22715;SDS011;11525;51.152;4.456;2023-08-06T10:57:55;5.97;;;1.40;;
22715;SDS011;11525;51.152;4.456;2023-08-06T11:00:24;3.97;;;1.63;;
22715;SDS011;11525;51.152;4.456;2023-08-06T11:02:50;7.50;;;1.73;;
22715;SDS011;11525;51.152;4.456;2023-08-06T11:05:17;5.88;;;1.67;;
22715;SDS011;11525;51.152;4.456;2023-08-06T11:07:43;5.43;;;1.58;;
22715;SDS011;11525;51.152;4.456;2023-08-06T11:10:10;6.30;;;1.52;;
22715;SDS011;11525;51.152;4.456;2023-08-06T11:12:37;3.45;;;1.40;;
22715;SDS011;11525;51.152;4.456;2023-08-06T11:15:04;4.20;;;1.65;;
22715;SDS011;11525;51.152;4.456;2023-08-06T11:17:31;3.63;;;1.30;;
22715;SDS011;11525;51.152;4.456;2023-08-06T11:20:02;6.55;;;1.65;;
22715;SDS011;11525;51.152;4.456;2023-08-06T11:22:29;5.45;;;1.98;;
22715;SDS011;11525;51.152;4.456;2023-08-06T11:24:55;5.03;;;1.55;;
22715;SDS011;11525;51.152;4.456;2023-08-06T11:27:20;6.75;;;1.83;;
22715;SDS011;11525;51.152;4.456;2023-08-06T11:29:46;8.05;;;1.75;;
22715;SDS011;11525;51.152;4.456;2023-08-06T11:32:12;8.30;;;1.92;;
22715;SDS011;11525;51.152;4.456;2023-08-06T11:34:39;6.85;;;2.22;;
22715;SDS011;11525;51.152;4.456;2023-08-06T11:37:06;10.70;;;2.70;;
22715;SDS011;11525;51.152;4.456;2023-08-06T11:39:35;7.75;;;2.35;;
22715;SDS011;11525;51.152;4.456;2023-08-06T11:42:02;11.95;;;2.35;;
22715;SDS011;11525;51.152;4.456;2023-08-06T11:44:30;6.05;;;2.00;;
22715;SDS011;11525;51.152;4.456;2023-08-06T11:46:59;10.70;;;2.28;;
22715;SDS011;11525;51.152;4.456;2023-08-06T11:49:39;9.32;;;2.20;;
22715;SDS011;11525;51.152;4.456;2023-08-06T11:55:03;13.85;;;2.78;;
22715;SDS011;11525;51.152;4.456;2023-08-06T11:57:35;13.93;;;2.67;;
22715;SDS011;11525;51.152;4.456;2023-08-06T12:00:04;10.45;;;2.60;;
22715;SDS011;11525;51.152;4.456;2023-08-06T12:02:32;12.23;;;2.67;;
22715;SDS011;11525;51.152;4.456;2023-08-06T12:07:41;10.13;;;2.67;;
22715;SDS011;11525;51.152;4.456;2023-08-06T12:10:09;14.32;;;3.20;;
22715;SDS011;11525;51.152;4.456;2023-08-06T12:12:35;11.85;;;2.85;;
22715;SDS011;11525;51.152;4.456;2023-08-06T12:15:02;12.20;;;3.28;;
22715;SDS011;11525;51.152;4.456;2023-08-06T12:17:28;10.07;;;2.53;;
22715;SDS011;11525;51.152;4.456;2023-08-06T12:19:54;12.85;;;3.22;;
22715;SDS011;11525;51.152;4.456;2023-08-06T12:22:19;11.82;;;2.70;;
22715;SDS011;11525;51.152;4.456;2023-08-06T12:24:46;13.82;;;2.95;;
22715;SDS011;11525;51.152;4.456;2023-08-06T12:27:13;19.15;;;2.95;;
22715;SDS011;11525;51.152;4.456;2023-08-06T12:29:41;14.85;;;3.17;;
22715;SDS011;11525;51.152;4.456;2023-08-06T12:32:08;8.93;;;2.80;;
22715;SDS011;11525;51.152;4.456;2023-08-06T12:34:34;12.65;;;3.25;;
22715;SDS011;11525;51.152;4.456;2023-08-06T12:37:01;17.13;;;3.40;;
22715;SDS011;11525;51.152;4.456;2023-08-06T12:39:27;14.70;;;3.50;;
22715;SDS011;11525;51.152;4.456;2023-08-06T12:41:54;11.30;;;2.95;;
22715;SDS011;11525;51.152;4.456;2023-08-06T12:44:20;12.45;;;3.00;;
22715;SDS011;11525;51.152;4.456;2023-08-06T12:46:46;14.10;;;3.08;;
22715;SDS011;11525;51.152;4.456;2023-08-06T12:49:12;10.07;;;2.78;;
22715;SDS011;11525;51.152;4.456;2023-08-06T12:51:37;9.52;;;2.80;;
22715;SDS011;11525;51.152;4.456;2023-08-06T12:54:03;13.90;;;2.97;;
22715;SDS011;11525;51.152;4.456;2023-08-06T12:56:29;9.00;;;2.05;;
22715;SDS011;11525;51.152;4.456;2023-08-06T12:58:54;9.70;;;2.08;;
22715;SDS011;11525;51.152;4.456;2023-08-06T13:01:20;8.70;;;2.05;;
22715;SDS011;11525;51.152;4.456;2023-08-06T13:03:46;8.63;;;2.15;;
22715;SDS011;11525;51.152;4.456;2023-08-06T13:06:11;9.40;;;2.20;;
22715;SDS011;11525;51.152;4.456;2023-08-06T13:08:37;4.53;;;1.50;;
22715;SDS011;11525;51.152;4.456;2023-08-06T13:11:03;3.65;;;1.40;;
22715;SDS011;11525;51.152;4.456;2023-08-06T13:13:29;7.78;;;1.92;;
22715;SDS011;11525;51.152;4.456;2023-08-06T13:15:55;13.05;;;2.00;;
22715;SDS011;11525;51.152;4.456;2023-08-06T13:18:21;6.45;;;2.22;;
22715;SDS011;11525;51.152;4.456;2023-08-06T13:20:47;8.10;;;2.42;;
22715;SDS011;11525;51.152;4.456;2023-08-06T13:23:14;5.47;;;2.13;;
22715;SDS011;11525;51.152;4.456;2023-08-06T13:25:41;7.15;;;2.20;;
22715;SDS011;11525;51.152;4.456;2023-08-06T13:28:07;6.53;;;2.30;;
22715;SDS011;11525;51.152;4.456;2023-08-06T13:30:33;5.18;;;2.15;;
22715;SDS011;11525;51.152;4.456;2023-08-06T13:33:07;4.82;;;1.63;;
22715;SDS011;11525;51.152;4.456;2023-08-06T13:35:33;5.70;;;1.90;;
22715;SDS011;11525;51.152;4.456;2023-08-06T13:37:59;7.60;;;2.17;;
22715;SDS011;11525;51.152;4.456;2023-08-06T13:40:27;7.47;;;2.05;;
22715;SDS011;11525;51.152;4.456;2023-08-06T13:42:53;7.75;;;2.13;;
22715;SDS011;11525;51.152;4.456;2023-08-06T13:45:19;8.20;;;1.83;;
22715;SDS011;11525;51.152;4.456;2023-08-06T13:47:45;5.85;;;2.45;;
22715;SDS011;11525;51.152;4.456;2023-08-06T13:50:10;9.23;;;2.40;;
22715;SDS011;11525;51.152;4.456;2023-08-06T13:52:36;9.65;;;2.22;;
22715;SDS011;11525;51.152;4.456;2023-08-06T13:55:02;12.00;;;2.55;;
22715;SDS011;11525;51.152;4.456;2023-08-06T13:57:29;9.60;;;2.47;;
22715;SDS011;11525;51.152;4.456;2023-08-06T13:59:55;16.65;;;3.08;;
22715;SDS011;11525;51.152;4.456;2023-08-06T14:02:21;11.65;;;2.70;;
22715;SDS011;11525;51.152;4.456;2023-08-06T14:04:47;10.90;;;2.95;;
22715;SDS011;11525;51.152;4.456;2023-08-06T14:07:13;9.32;;;2.50;;
22715;SDS011;11525;51.152;4.456;2023-08-06T14:09:39;15.70;;;2.70;;
22715;SDS011;11525;51.152;4.456;2023-08-06T14:12:05;11.82;;;2.83;;
22715;SDS011;11525;51.152;4.456;2023-08-06T14:14:31;13.05;;;3.25;;
22715;SDS011;11525;51.152;4.456;2023-08-06T14:16:57;7.38;;;2.58;;
22715;SDS011;11525;51.152;4.456;2023-08-06T14:19:23;7.72;;;2.67;;
22715;SDS011;11525;51.152;4.456;2023-08-06T14:21:49;12.65;;;2.83;;
22715;SDS011;11525;51.152;4.456;2023-08-06T14:24:15;13.50;;;2.80;;
22715;SDS011;11525;51.152;4.456;2023-08-06T14:26:40;12.15;;;3.35;;
22715;SDS011;11525;51.152;4.456;2023-08-06T14:29:06;12.35;;;2.85;;
22715;SDS011;11525;51.152;4.456;2023-08-06T14:31:32;12.40;;;3.33;;
22715;SDS011;11525;51.152;4.456;2023-08-06T14:33:57;9.40;;;2.85;;
22715;SDS011;11525;51.152;4.456;2023-08-06T14:36:23;14.77;;;2.90;;
22715;SDS011;11525;51.152;4.456;2023-08-06T14:38:49;9.13;;;2.40;;
22715;SDS011;11525;51.152;4.456;2023-08-06T14:41:14;8.80;;;2.13;;
22715;SDS011;11525;51.152;4.456;2023-08-06T14:43:40;10.45;;;3.03;;
22715;SDS011;11525;51.152;4.456;2023-08-06T14:46:05;10.45;;;2.25;;
22715;SDS011;11525;51.152;4.456;2023-08-06T14:48:31;10.75;;;2.25;;
22715;SDS011;11525;51.152;4.456;2023-08-06T14:50:57;13.13;;;2.50;;
22715;SDS011;11525;51.152;4.456;2023-08-06T14:53:22;6.63;;;1.92;;